Time;durP1;ratioP1;P1;durP2;ratioP2;P2;SDS_P1;SDS_P2;PMS_P1;PMS_P2;Temp;Humidity;BMP_temperature;BMP_pressure;BME280_temperature;BME280_humidity;BME280_pressure;Samples;Min_cycle;Max_cycle;Signal;HPM_P1;HPM_P2
2024/03/28 00:01:50;;;;;;;1.20;0.70;;;22.60;54.20;;;;;;4994202;28;20644;-68
2024/03/28 00:04:16;;;;;;;0.90;0.70;;;22.60;54.70;;;;;;4994534;28;20582;-67
2024/03/28 00:06:42;;;;;;;1.10;0.73;;;22.60;54.20;;;;;;4994228;28;20177;-67
2024/03/28 00:09:07;;;;;;;0.90;0.70;;;22.60;54.20;;;;;;4994201;28;20547;-67
2024/03/28 00:11:33;;;;;;;0.90;0.70;;;22.50;54.10;;;;;;4993865;28;20212;-68
2024/03/28 00:13:58;;;;;;;0.80;0.60;;;22.50;54.10;;;;;;4994167;28;20196;-68
2024/03/28 00:16:24;;;;;;;1.00;0.70;;;22.50;54.10;;;;;;4993914;28;20180;-68
2024/03/28 00:18:49;;;;;;;0.90;0.70;;;22.50;54.10;;;;;;4994140;28;20211;-67
2024/03/28 00:21:15;;;;;;;0.97;0.73;;;22.50;54.10;;;;;;4993721;28;20684;-69
2024/03/28 00:23:40;;;;;;;1.00;0.80;;;22.60;54.20;;;;;;4994037;28;20188;-68
2024/03/28 00:26:08;;;;;;;0.80;0.60;;;22.60;54.20;;;;;;4993700;28;20173;-67
2024/03/28 00:28:34;;;;;;;1.00;0.70;;;22.60;54.20;;;;;;4993619;28;20185;-68
2024/03/28 00:31:01;;;;;;;1.10;0.90;;;22.60;54.20;;;;;;4993671;28;20436;-68
2024/03/28 00:33:27;;;;;;;1.40;0.90;;;22.60;54.20;;;;;;4993762;28;20173;-67
2024/03/28 00:35:52;;;;;;;0.90;0.70;;;22.60;54.20;;;;;;4993471;28;20417;-69
2024/03/28 00:38:18;;;;;;;1.13;0.87;;;22.60;54.70;;;;;;4993381;28;20208;-68
2024/03/28 00:40:47;;;;;;;0.90;0.60;;;22.60;54.20;;;;;;4993294;28;20188;-67
2024/03/28 00:43:13;;;;;;;1.10;0.77;;;22.60;54.20;;;;;;4993334;28;20209;-68
2024/03/28 00:45:39;;;;;;;1.00;0.80;;;22.60;54.10;;;;;;4993903;28;20775;-68
2024/03/28 00:48:05;;;;;;;1.00;0.80;;;22.60;54.10;;;;;;4993406;28;20416;-69
2024/03/28 00:50:32;;;;;;;1.30;0.87;;;22.60;54.10;;;;;;4993227;28;20307;-67
2024/03/28 00:52:58;;;;;;;1.00;0.70;;;22.60;54.20;;;;;;4993250;28;20189;-68
2024/03/28 00:55:24;;;;;;;1.00;0.80;;;22.60;54.10;;;;;;4993447;28;20424;-68
2024/03/28 00:57:50;;;;;;;1.00;0.80;;;22.60;54.10;;;;;;4993125;28;20463;-68
2024/03/28 01:00:16;;;;;;;1.00;0.80;;;22.60;54.10;;;;;;4992979;28;20204;-67
2024/03/28 01:02:42;;;;;;;0.97;0.80;;;22.50;54.00;;;;;;4992935;28;20419;-67
2024/03/28 01:05:08;;;;;;;0.80;0.60;;;22.50;54.00;;;;;;4993175;28;20443;-67
2024/03/28 01:07:34;;;;;;;0.90;0.70;;;22.50;54.00;;;;;;4993018;28;20620;-67
2024/03/28 01:09:59;;;;;;;1.00;0.73;;;22.50;54.00;;;;;;4993250;28;20702;-68
2024/03/28 01:12:25;;;;;;;0.90;0.70;;;22.50;54.10;;;;;;4993197;28;20452;-68
2024/03/28 01:14:50;;;;;;;0.90;0.70;;;22.50;54.00;;;;;;4992795;28;20239;-68
2024/03/28 01:17:16;;;;;;;0.90;0.60;;;22.50;54.60;;;;;;4992826;28;20184;-68
2024/03/28 01:19:42;;;;;;;1.00;0.70;;;22.50;54.00;;;;;;4992904;28;20691;-67
2024/03/28 01:22:07;;;;;;;0.80;0.60;;;22.50;54.00;;;;;;4992682;28;20597;-68
2024/03/28 01:24:33;;;;;;;1.00;0.83;;;22.60;54.10;;;;;;4993045;28;20173;-67
2024/03/28 01:26:58;;;;;;;0.80;0.60;;;22.50;54.00;;;;;;4992699;28;20223;-68
2024/03/28 01:29:24;;;;;;;1.00;0.70;;;22.50;54.00;;;;;;4992870;28;20747;-69
2024/03/28 01:31:49;;;;;;;1.00;0.80;;;22.50;54.00;;;;;;4992929;28;20208;-66
2024/03/28 01:34:15;;;;;;;0.90;0.70;;;22.50;54.00;;;;;;4992501;28;20185;-68
2024/03/28 01:36:40;;;;;;;1.13;0.90;;;22.50;54.10;;;;;;4992732;28;20189;-69
2024/03/28 01:39:07;;;;;;;0.90;0.70;;;22.50;54.10;;;;;;4992432;28;20212;-68
2024/03/28 01:41:33;;;;;;;0.80;0.60;;;22.50;54.10;;;;;;4992408;28;20668;-68
2024/03/28 01:43:59;;;;;;;1.13;0.90;;;22.50;54.10;;;;;;4992735;28;20471;-68
2024/03/28 01:46:24;;;;;;;0.90;0.70;;;22.50;54.10;;;;;;4992772;28;20185;-68
2024/03/28 01:48:51;;;;;;;1.10;0.80;;;22.50;54.10;;;;;;4992451;28;20543;-68
2024/03/28 01:51:19;;;;;;;1.00;0.80;;;22.50;54.10;;;;;;4992632;28;20208;-68
2024/03/28 01:53:47;;;;;;;0.90;0.70;;;22.50;54.10;;;;;;4992517;28;20409;-68
2024/03/28 01:56:14;;;;;;;0.80;0.60;;;22.50;54.10;;;;;;4992170;28;20984;-67
2024/03/28 01:58:40;;;;;;;1.20;0.70;;;22.50;54.10;;;;;;4992225;28;20460;-67
2024/03/28 02:01:07;;;;;;;0.97;0.73;;;22.50;54.10;;;;;;4992478;28;20435;-67
2024/03/28 02:03:33;;;;;;;1.00;0.70;;;22.50;54.00;;;;;;4992717;28;20424;-69
2024/03/28 02:05:59;;;;;;;1.00;0.77;;;22.50;54.10;;;;;;4991949;28;20794;-67
2024/03/28 02:08:27;;;;;;;0.97;0.73;;;22.50;54.10;;;;;;4992119;28;20275;-67
2024/03/28 02:10:53;;;;;;;0.90;0.60;;;22.50;54.10;;;;;;4992667;28;21010;-68
2024/03/28 02:13:19;;;;;;;1.20;0.80;;;22.50;54.00;;;;;;4992208;28;20424;-67
2024/03/28 02:15:44;;;;;;;0.90;0.60;;;22.50;54.10;;;;;;4994313;28;20458;-67
2024/03/28 02:18:10;;;;;;;0.90;0.70;;;22.50;54.00;;;;;;4995731;28;20209;-68
2024/03/28 02:20:36;;;;;;;1.03;0.70;;;22.50;54.10;;;;;;4996085;28;20284;-68
2024/03/28 02:23:02;;;;;;;0.90;0.70;;;22.50;54.10;;;;;;4995872;28;20175;-69
2024/03/28 02:25:27;;;;;;;0.90;0.70;;;22.50;54.00;;;;;;4996177;28;20426;-68
2024/03/28 02:27:53;;;;;;;1.00;0.70;;;22.50;54.00;;;;;;4995871;28;20181;-68
2024/03/28 02:30:19;;;;;;;0.93;0.70;;;22.50;54.00;;;;;;4995862;28;20695;-67
2024/03/28 02:32:44;;;;;;;1.00;0.90;;;22.50;54.10;;;;;;4995745;28;20165;-67
2024/03/28 02:35:10;;;;;;;1.00;0.70;;;22.50;54.10;;;;;;4995926;28;20415;-68
2024/03/28 02:37:36;;;;;;;1.03;0.90;;;22.50;54.10;;;;;;4996235;28;20180;-69
2024/03/28 02:40:02;;;;;;;0.90;0.70;;;22.50;54.10;;;;;;4978207;28;20379;-68
2024/03/28 02:42:27;;;;;;;1.00;0.80;;;22.50;54.10;;;;;;4995572;28;20169;-67
2024/03/28 02:44:53;;;;;;;1.00;0.70;;;22.50;54.10;;;;;;4995455;28;20423;-68
2024/03/28 02:47:19;;;;;;;0.90;0.70;;;22.50;54.10;;;;;;4995711;28;20209;-67
2024/03/28 02:49:45;;;;;;;0.90;0.60;;;22.40;54.00;;;;;;4995387;28;20307;-67
2024/03/28 02:52:10;;;;;;;1.23;0.70;;;22.40;54.00;;;;;;4995633;28;20180;-68
2024/03/28 02:54:36;;;;;;;1.00;0.77;;;22.40;54.00;;;;;;4995428;28;20173;-67
2024/03/28 02:57:03;;;;;;;1.00;0.70;;;22.40;54.00;;;;;;4995593;28;20181;-68
2024/03/28 02:59:29;;;;;;;0.90;0.73;;;22.50;54.10;;;;;;4995545;28;20244;-69
2024/03/28 03:01:55;;;;;;;1.10;0.87;;;22.40;54.00;;;;;;4995540;28;20411;-68
2024/03/28 03:04:20;;;;;;;0.97;0.77;;;22.50;54.10;;;;;;4995233;28;20943;-69
2024/03/28 03:06:46;;;;;;;0.90;0.60;;;22.40;54.00;;;;;;4995263;28;20173;-67
2024/03/28 03:09:11;;;;;;;0.90;0.70;;;22.50;54.10;;;;;;4995497;28;20188;-67
2024/03/28 03:11:37;;;;;;;0.93;0.70;;;22.40;54.00;;;;;;4994763;28;20275;-67
2024/03/28 03:14:03;;;;;;;0.93;0.70;;;22.40;54.00;;;;;;4995079;28;20184;-69
2024/03/28 03:16:28;;;;;;;0.97;0.87;;;22.40;54.00;;;;;;4995134;28;20204;-68
2024/03/28 03:18:54;;;;;;;1.00;0.70;;;22.40;54.00;;;;;;4995420;28;20227;-68
2024/03/28 03:21:19;;;;;;;1.00;0.80;;;22.40;54.10;;;;;;4995277;28;20200;-67
2024/03/28 03:23:49;;;;;;;0.90;0.70;;;22.40;54.00;;;;;;4995512;28;20648;-67
2024/03/28 03:26:25;;;;;;;0.90;0.80;;;22.40;54.00;;;;;;4994866;28;20165;-68
2024/03/28 03:34:35;;;;;;;1.00;0.80;;;22.40;54.10;;;;;;4994769;28;20400;-68
2024/03/28 03:37:07;;;;;;;1.37;0.70;;;22.40;54.10;;;;;;4994913;28;20443;-68
2024/03/28 03:39:33;;;;;;;1.17;0.80;;;22.40;54.10;;;;;;4994665;28;20440;-68
2024/03/28 03:41:58;;;;;;;0.80;0.60;;;22.40;54.10;;;;;;4994742;28;20435;-68
2024/03/28 03:44:24;;;;;;;1.10;0.80;;;22.40;54.10;;;;;;4994374;28;20668;-68
2024/03/28 03:46:50;;;;;;;0.80;0.60;;;22.40;54.10;;;;;;4994550;28;20185;-66
2024/03/28 03:49:16;;;;;;;0.90;0.70;;;22.40;54.10;;;;;;4994573;28;20224;-68
2024/03/28 03:51:42;;;;;;;0.90;0.60;;;22.40;54.10;;;;;;4994488;28;20491;-68
2024/03/28 03:54:07;;;;;;;0.90;0.70;;;22.40;54.10;;;;;;4994447;28;20999;-67
2024/03/28 03:56:33;;;;;;;0.90;0.70;;;22.40;54.10;;;;;;4994824;28;20177;-68
2024/03/28 03:58:58;;;;;;;0.80;0.60;;;22.40;54.10;;;;;;4994412;28;20236;-68
2024/03/28 04:01:25;;;;;;;0.90;0.63;;;22.40;54.10;;;;;;4994609;28;20605;-68
2024/03/28 04:03:50;;;;;;;0.90;0.70;;;22.40;54.10;;;;;;4994189;28;20177;-69
2024/03/28 04:06:16;;;;;;;1.00;0.70;;;22.40;54.10;;;;;;4994167;28;20465;-68
2024/03/28 04:08:42;;;;;;;1.00;0.80;;;22.40;54.10;;;;;;4994449;28;20260;-67
2024/03/28 04:11:07;;;;;;;0.97;0.70;;;22.40;54.10;;;;;;4994119;28;20205;-67
2024/03/28 04:13:33;;;;;;;1.00;0.73;;;22.40;54.10;;;;;;4993965;28;20264;-69
2024/03/28 04:15:59;;;;;;;0.90;0.70;;;22.40;54.10;;;;;;4994002;28;20578;-68
2024/03/28 04:18:24;;;;;;;1.00;0.70;;;22.40;54.10;;;;;;4993767;28;20627;-68
2024/03/28 04:20:50;;;;;;;0.83;0.70;;;22.30;54.10;;;;;;4993658;28;20189;-69
2024/03/28 04:23:16;;;;;;;1.00;0.70;;;22.30;54.10;;;;;;4994073;28;20169;-68
2024/03/28 04:25:42;;;;;;;0.90;0.70;;;22.40;54.10;;;;;;4993755;28;20789;-68
2024/03/28 04:28:07;;;;;;;0.93;0.70;;;22.40;54.20;;;;;;4993948;28;20177;-67
2024/03/28 04:30:35;;;;;;;1.30;0.90;;;22.30;54.10;;;;;;4993656;28;20594;-69
2024/03/28 04:33:02;;;;;;;0.90;0.70;;;22.30;54.10;;;;;;4993578;28;20204;-67
2024/03/28 04:35:27;;;;;;;0.80;0.60;;;22.30;54.10;;;;;;4993830;28;20440;-68
2024/03/28 04:37:54;;;;;;;0.90;0.70;;;22.30;54.10;;;;;;4992856;28;20456;-66
2024/03/28 04:40:20;;;;;;;0.90;0.60;;;22.30;54.10;;;;;;4993479;28;20511;-67
2024/03/28 04:42:50;;;;;;;0.90;0.70;;;22.30;54.10;;;;;;4993480;28;20196;-67
2024/03/28 04:45:19;;;;;;;0.93;0.83;;;22.30;54.10;;;;;;4993829;28;20261;-67
2024/03/28 04:47:49;;;;;;;0.90;0.70;;;22.30;54.10;;;;;;4993356;28;20816;-68
2024/03/28 04:50:15;;;;;;;1.27;0.80;;;22.30;54.10;;;;;;4992853;28;20484;-67
2024/03/28 04:52:41;;;;;;;1.00;0.70;;;22.30;54.10;;;;;;4992996;28;20428;-68
2024/03/28 04:55:07;;;;;;;0.90;0.63;;;22.30;54.10;;;;;;4993341;28;20907;-67
2024/03/28 04:57:33;;;;;;;1.00;0.70;;;22.30;54.10;;;;;;4993257;28;20173;-68
2024/03/28 04:59:59;;;;;;;0.90;0.70;;;22.30;54.10;;;;;;4993054;28;20440;-68
2024/03/28 05:02:25;;;;;;;1.00;0.70;;;22.30;54.10;;;;;;4993121;28;20524;-67
2024/03/28 05:04:51;;;;;;;0.90;0.60;;;22.30;54.10;;;;;;4993497;28;20408;-68
2024/03/28 05:07:16;;;;;;;0.90;0.67;;;22.30;54.10;;;;;;4993298;28;20552;-68
2024/03/28 05:09:45;;;;;;;0.90;0.60;;;22.40;54.20;;;;;;4975477;28;20193;-67
2024/03/28 05:12:11;;;;;;;0.80;0.63;;;22.30;54.10;;;;;;4992918;28;20204;-69
2024/03/28 05:14:37;;;;;;;1.00;0.70;;;22.40;54.20;;;;;;4993105;28;20463;-65
2024/03/28 05:17:03;;;;;;;0.90;0.70;;;22.30;54.10;;;;;;4992909;28;20208;-67
2024/03/28 05:19:28;;;;;;;0.90;0.70;;;22.40;54.10;;;;;;4992930;28;20232;-67
2024/03/28 05:21:54;;;;;;;0.90;0.60;;;22.40;54.20;;;;;;4992853;28;20451;-67
2024/03/28 05:24:20;;;;;;;0.93;0.80;;;22.40;54.10;;;;;;4993346;28;20173;-68
2024/03/28 05:26:45;;;;;;;1.00;0.80;;;22.40;54.10;;;;;;4992892;28;20179;-68
2024/03/28 05:29:12;;;;;;;0.80;0.60;;;22.40;54.10;;;;;;4992698;28;20530;-68
2024/03/28 05:31:37;;;;;;;0.80;0.60;;;22.40;54.10;;;;;;4992683;28;20201;-68
2024/03/28 05:34:03;;;;;;;1.00;0.67;;;22.40;54.10;;;;;;4992660;28;20412;-68
2024/03/28 05:36:28;;;;;;;0.97;0.70;;;22.40;54.10;;;;;;4992830;28;20275;-65
2024/03/28 05:38:54;;;;;;;1.10;0.73;;;22.40;54.10;;;;;;4992619;28;20197;-67
2024/03/28 05:41:19;;;;;;;0.90;0.60;;;22.40;54.10;;;;;;4992477;28;20197;-67
2024/03/28 05:43:45;;;;;;;0.90;0.60;;;22.40;54.10;;;;;;4992567;28;20169;-68
2024/03/28 05:46:11;;;;;;;0.90;0.60;;;22.40;54.10;;;;;;4992475;28;20200;-67
2024/03/28 05:48:36;;;;;;;0.90;0.60;;;22.40;54.10;;;;;;4992929;28;20173;-68
2024/03/28 05:51:02;;;;;;;1.00;0.70;;;22.40;54.10;;;;;;4991447;28;20294;-68
2024/03/28 05:53:27;;;;;;;0.97;0.63;;;22.40;54.10;;;;;;4992933;28;20177;-68
2024/03/28 05:55:53;;;;;;;0.80;0.70;;;22.40;54.00;;;;;;4992718;28;20208;-69
2024/03/28 05:58:19;;;;;;;0.87;0.60;;;22.40;54.00;;;;;;4992712;28;20255;-67
2024/03/28 06:00:45;;;;;;;0.80;0.60;;;22.40;54.00;;;;;;4992568;28;20709;-68
2024/03/28 06:03:10;;;;;;;0.80;0.60;;;22.40;54.00;;;;;;4992758;28;20415;-69
2024/03/28 06:05:36;;;;;;;1.00;0.80;;;22.40;54.10;;;;;;4992649;28;20177;-68
2024/03/28 06:08:01;;;;;;;1.00;0.70;;;22.40;54.10;;;;;;4992719;28;20268;-67
2024/03/28 06:10:27;;;;;;;1.03;0.70;;;22.40;54.00;;;;;;4992317;28;20236;-68
2024/03/28 06:12:52;;;;;;;0.90;0.60;;;22.40;54.10;;;;;;4992527;28;20200;-67
2024/03/28 06:15:18;;;;;;;0.80;0.60;;;22.40;54.00;;;;;;4992737;28;20185;-68
2024/03/28 06:17:44;;;;;;;1.20;0.80;;;22.40;54.10;;;;;;4992092;28;20629;-68
2024/03/28 06:20:10;;;;;;;0.80;0.60;;;22.40;54.00;;;;;;4992193;28;20204;-67
2024/03/28 06:22:36;;;;;;;0.90;0.60;;;22.50;54.20;;;;;;4992379;28;20169;-69
2024/03/28 06:25:02;;;;;;;0.80;0.60;;;22.40;54.70;;;;;;4992694;28;20906;-68
2024/03/28 06:27:28;;;;;;;1.00;0.60;;;22.40;54.10;;;;;;4992335;28;20499;-68
2024/03/28 06:29:54;;;;;;;1.00;0.63;;;22.40;54.10;;;;;;4992385;28;20243;-68
2024/03/28 06:32:26;;;;;;;1.00;0.70;;;22.50;54.20;;;;;;4974747;28;20200;-69
2024/03/28 06:34:52;;;;;;;1.03;0.80;;;22.40;54.10;;;;;;4992129;28;20401;-68
2024/03/28 06:37:18;;;;;;;0.87;0.60;;;22.40;54.10;;;;;;4992558;28;20414;-68
2024/03/28 06:39:44;;;;;;;0.90;0.70;;;22.50;54.20;;;;;;4992206;28;20537;-68
2024/03/28 06:42:10;;;;;;;1.00;0.77;;;22.50;54.20;;;;;;4992547;28;20921;-67
2024/03/28 06:44:36;;;;;;;0.80;0.60;;;22.50;54.20;;;;;;4992245;28;20416;-68
2024/03/28 06:47:02;;;;;;;0.93;0.77;;;22.50;54.20;;;;;;4992168;28;20193;-68
2024/03/28 06:49:28;;;;;;;1.00;0.60;;;22.50;54.20;;;;;;4991982;28;20197;-68
2024/03/28 06:51:54;;;;;;;0.90;0.70;;;22.50;54.20;;;;;;4992753;28;20416;-68
2024/03/28 06:54:20;;;;;;;0.80;0.60;;;22.50;54.20;;;;;;4992358;28;20185;-67
2024/03/28 06:56:46;;;;;;;0.90;0.70;;;22.50;54.20;;;;;;4992463;28;20604;-68
2024/03/28 06:59:13;;;;;;;0.87;0.70;;;22.50;54.20;;;;;;4992411;28;20966;-68
2024/03/28 07:01:41;;;;;;;0.90;0.70;;;22.50;54.20;;;;;;4993749;28;20696;-67
2024/03/28 07:04:08;;;;;;;0.80;0.60;;;22.50;54.20;;;;;;4978045;28;20416;-67
2024/03/28 07:06:34;;;;;;;0.80;0.60;;;22.50;54.20;;;;;;4995526;28;20802;-67
2024/03/28 07:09:00;;;;;;;1.00;0.67;;;22.50;54.20;;;;;;4995877;28;20462;-67
2024/03/28 07:11:25;;;;;;;1.00;0.70;;;22.50;54.20;;;;;;4995658;28;20882;-68
2024/03/28 07:13:51;;;;;;;0.90;0.60;;;22.60;54.20;;;;;;4995532;28;20188;-68
2024/03/28 07:16:18;;;;;;;0.90;0.67;;;22.50;54.20;;;;;;4995626;28;20188;-68
2024/03/28 07:18:44;;;;;;;0.83;0.60;;;22.50;54.20;;;;;;4978258;28;20205;-68
2024/03/28 07:21:10;;;;;;;0.87;0.60;;;22.60;54.20;;;;;;4995365;28;20475;-67
2024/03/28 07:23:40;;;;;;;0.90;0.60;;;22.60;54.30;;;;;;4978193;28;20412;-68
2024/03/28 07:26:07;;;;;;;0.90;0.70;;;22.60;54.20;;;;;;4995336;28;20165;-68
2024/03/28 07:28:32;;;;;;;1.00;0.77;;;22.60;54.20;;;;;;4995204;28;20466;-66
2024/03/28 07:30:58;;;;;;;0.90;0.60;;;22.60;54.20;;;;;;4995578;28;20812;-67
2024/03/28 07:33:24;;;;;;;0.93;0.70;;;22.60;54.20;;;;;;4995757;28;20180;-67
2024/03/28 07:35:50;;;;;;;0.90;0.70;;;22.60;54.20;;;;;;4995264;28;20283;-67
2024/03/28 07:38:17;;;;;;;0.90;0.70;;;22.60;54.30;;;;;;4995259;28;20523;-67
2024/03/28 07:40:46;;;;;;;0.90;0.70;;;22.60;54.20;;;;;;4994915;28;20500;-69
2024/03/28 07:43:12;;;;;;;0.90;0.60;;;22.60;54.20;;;;;;4994884;28;20415;-68
2024/03/28 07:45:38;;;;;;;0.90;0.60;;;22.60;54.30;;;;;;4995261;28;20412;-67
2024/03/28 07:48:04;;;;;;;0.80;0.60;;;22.60;54.20;;;;;;4995319;28;20424;-68
2024/03/28 07:50:30;;;;;;;0.80;0.50;;;22.60;54.20;;;;;;4994911;28;21374;-67
2024/03/28 07:52:55;;;;;;;0.90;0.70;;;22.60;54.70;;;;;;4977579;28;20197;-68
2024/03/28 07:55:22;;;;;;;0.80;0.60;;;22.60;54.20;;;;;;4995540;28;20216;-67
2024/03/28 07:57:47;;;;;;;1.00;0.70;;;22.60;54.20;;;;;;4994356;28;20416;-68
2024/03/28 08:00:15;;;;;;;0.90;0.70;;;22.60;54.20;;;;;;4994773;28;20549;-68
2024/03/28 08:02:40;;;;;;;0.83;0.70;;;22.60;54.20;;;;;;4995004;28;20596;-67
2024/03/28 08:05:06;;;;;;;0.90;0.60;;;22.60;54.20;;;;;;4994671;28;20405;-68
2024/03/28 08:07:32;;;;;;;0.90;0.70;;;22.60;54.20;;;;;;4994663;28;20172;-67
2024/03/28 08:09:58;;;;;;;0.90;0.70;;;22.60;54.20;;;;;;4994650;28;20698;-68
2024/03/28 08:12:24;;;;;;;0.80;0.60;;;22.60;54.20;;;;;;4994227;28;20177;-66
2024/03/28 08:14:49;;;;;;;0.80;0.67;;;22.70;54.30;;;;;;4994616;28;20419;-67
2024/03/28 08:17:16;;;;;;;0.90;0.80;;;22.60;54.20;;;;;;4994776;28;20698;-69
2024/03/28 08:19:42;;;;;;;1.00;0.70;;;22.60;54.20;;;;;;4976683;28;20228;-67
2024/03/28 08:22:10;;;;;;;0.90;0.73;;;22.60;54.20;;;;;;4994652;28;20445;-67
2024/03/28 08:24:37;;;;;;;0.80;0.60;;;22.60;54.20;;;;;;4994464;28;20401;-68
2024/03/28 08:27:04;;;;;;;0.90;0.70;;;22.60;54.20;;;;;;4994300;28;20412;-68
2024/03/28 08:29:29;;;;;;;1.10;0.60;;;22.60;54.20;;;;;;4994151;28;20426;-66
2024/03/28 08:31:56;;;;;;;0.80;0.60;;;22.60;54.20;;;;;;4994085;28;20425;-68
2024/03/28 08:34:21;;;;;;;0.80;0.67;;;22.60;54.20;;;;;;4994783;28;20427;-70
2024/03/28 08:36:47;;;;;;;1.00;0.60;;;22.60;54.20;;;;;;4994131;28;20446;-67
2024/03/28 08:39:13;;;;;;;0.90;0.70;;;22.60;54.20;;;;;;4994184;28;20204;-65
2024/03/28 08:41:40;;;;;;;0.90;0.70;;;22.70;54.30;;;;;;4993948;28;20193;-66
2024/03/28 08:44:08;;;;;;;0.90;0.70;;;22.70;54.30;;;;;;4993656;28;20169;-68
2024/03/28 08:46:34;;;;;;;0.90;0.70;;;22.70;54.30;;;;;;4994029;28;20787;-68
2024/03/28 08:49:01;;;;;;;0.90;0.70;;;22.70;54.30;;;;;;4994117;28;20420;-68
2024/03/28 08:51:26;;;;;;;0.90;0.60;;;22.70;54.30;;;;;;4993558;28;20519;-68
2024/03/28 08:53:52;;;;;;;0.90;0.60;;;22.70;54.30;;;;;;4994246;28;20448;-69
2024/03/28 08:56:20;;;;;;;0.93;0.70;;;22.70;54.30;;;;;;4993432;28;20268;-68
2024/03/28 08:58:45;;;;;;;0.87;0.60;;;22.70;54.30;;;;;;4993999;28;20209;-69
2024/03/28 09:01:13;;;;;;;1.00;0.70;;;22.70;54.40;;;;;;4993894;28;20460;-67
2024/03/28 09:03:39;;;;;;;1.10;0.70;;;22.70;54.40;;;;;;4993270;28;20240;-68
2024/03/28 09:06:09;;;;;;;0.90;0.60;;;22.70;54.40;;;;;;4993327;28;20794;-68
2024/03/28 09:08:36;;;;;;;0.80;0.60;;;22.70;54.40;;;;;;4993556;28;20393;-68
2024/03/28 09:11:06;;;;;;;0.90;0.70;;;22.70;54.40;;;;;;4993645;28;20831;-67
2024/03/28 09:13:31;;;;;;;0.87;0.70;;;22.70;54.40;;;;;;4993870;28;20397;-68
2024/03/28 09:15:57;;;;;;;0.90;0.60;;;22.70;54.40;;;;;;4992342;28;20443;-68
2024/03/28 09:18:23;;;;;;;0.90;0.70;;;22.70;54.40;;;;;;4991897;28;20584;-67
2024/03/28 09:20:48;;;;;;;1.20;0.70;;;22.70;54.40;;;;;;4991795;28;20491;-68
2024/03/28 09:23:14;;;;;;;1.10;0.70;;;22.70;54.40;;;;;;4991805;28;20528;-67
2024/03/28 09:25:40;;;;;;;0.90;0.60;;;22.70;54.30;;;;;;4991317;28;20211;-68
2024/03/28 09:28:05;;;;;;;0.80;0.60;;;22.70;54.30;;;;;;4991590;28;20183;-69
2024/03/28 09:30:31;;;;;;;1.00;0.70;;;22.70;54.30;;;;;;4991729;28;20608;-68
2024/03/28 09:32:56;;;;;;;0.90;0.73;;;22.70;54.30;;;;;;4991825;28;20184;-69
2024/03/28 09:35:22;;;;;;;1.00;0.70;;;22.70;54.30;;;;;;4992079;28;20604;-68
2024/03/28 09:37:47;;;;;;;0.90;0.70;;;22.70;54.40;;;;;;4992099;28;20204;-67
2024/03/28 09:40:16;;;;;;;0.80;0.70;;;22.70;54.30;;;;;;4992208;28;20197;-67
2024/03/28 09:42:44;;;;;;;1.23;0.70;;;22.70;54.30;;;;;;4992510;28;20715;-68
2024/03/28 09:45:12;;;;;;;1.10;0.70;;;22.70;54.30;;;;;;4992562;28;20826;-68
2024/03/28 09:47:38;;;;;;;0.90;0.70;;;22.70;54.40;;;;;;4992488;28;20755;-66
2024/03/28 09:50:13;;;;;;;1.13;0.80;;;22.70;54.30;;;;;;4992000;28;20486;-67
2024/03/28 09:52:42;;;;;;;0.80;0.60;;;22.70;54.30;;;;;;4992300;28;20388;-68
2024/03/28 09:55:08;;;;;;;1.00;0.63;;;22.70;54.30;;;;;;4992193;28;20439;-68
2024/03/28 09:57:34;;;;;;;1.00;0.73;;;22.70;54.30;;;;;;4992501;28;20408;-67
2024/03/28 10:00:00;;;;;;;0.80;0.60;;;22.70;54.30;;;;;;4991713;28;20468;-68
2024/03/28 10:02:53;;;;;;;1.00;0.77;;;22.70;54.40;;;;;;4992066;28;20550;-67
2024/03/28 10:05:19;;;;;;;1.00;0.70;;;22.70;54.40;;;;;;4992178;28;20442;-69
2024/03/28 10:07:47;;;;;;;0.93;0.67;;;22.70;54.40;;;;;;4991708;28;20416;-68
2024/03/28 10:10:14;;;;;;;0.80;0.60;;;22.70;54.40;;;;;;4991654;28;20189;-68
2024/03/28 10:12:54;;;;;;;0.80;0.60;;;22.70;54.40;;;;;;4991668;28;20499;-66
2024/03/28 10:15:20;;;;;;;0.80;0.60;;;22.70;54.40;;;;;;4991483;28;20392;-67
2024/03/28 10:17:46;;;;;;;0.80;0.60;;;22.70;54.40;;;;;;4991422;28;20431;-68
2024/03/28 10:20:13;;;;;;;0.90;0.60;;;22.70;54.40;;;;;;4991322;28;20189;-68
2024/03/28 10:22:52;;;;;;;0.90;0.70;;;22.70;54.40;;;;;;4991418;28;20475;-68
2024/03/28 10:25:23;;;;;;;0.80;0.60;;;22.70;54.40;;;;;;4991439;28;20431;-68
2024/03/28 10:27:49;;;;;;;0.90;0.70;;;22.70;54.40;;;;;;4991571;28;20931;-68
2024/03/28 10:30:22;;;;;;;0.90;0.60;;;22.70;54.40;;;;;;4991281;28;20435;-67
2024/03/28 10:33:07;;;;;;;1.00;0.70;;;22.70;55.00;;;;;;4991023;28;20404;-69
2024/03/28 10:35:34;;;;;;;0.90;0.70;;;22.70;54.40;;;;;;4991379;28;20393;-68
2024/03/28 10:38:04;;;;;;;0.93;0.80;;;22.70;54.40;;;;;;4994645;28;20915;-68
2024/03/28 10:40:32;;;;;;;0.90;0.60;;;22.70;54.40;;;;;;4995296;28;20476;-68
2024/03/28 10:43:00;;;;;;;1.00;0.60;;;22.70;54.40;;;;;;4995318;28;20427;-68
2024/03/28 10:45:38;;;;;;;0.97;0.80;;;22.70;54.40;;;;;;4995094;28;20415;-68
2024/03/28 10:48:09;;;;;;;0.80;0.60;;;22.80;54.50;;;;;;4994668;28;20426;-68
2024/03/28 10:51:01;;;;;;;1.00;0.63;;;22.70;54.40;;;;;;4994578;28;20470;-67
2024/03/28 10:53:38;;;;;;;0.80;0.60;;;22.70;54.40;;;;;;4994467;28;20408;-67
2024/03/28 10:56:17;;;;;;;0.90;0.60;;;22.70;54.40;;;;;;4994693;28;20423;-68
2024/03/28 10:58:43;;;;;;;0.90;0.70;;;22.70;54.40;;;;;;4994934;28;20523;-68
2024/03/28 11:01:09;;;;;;;0.80;0.57;;;22.70;54.40;;;;;;4994672;28;20423;-67
2024/03/28 11:03:35;;;;;;;0.80;0.60;;;22.70;54.40;;;;;;4994995;28;20542;-67
2024/03/28 11:06:01;;;;;;;0.90;0.70;;;22.70;54.40;;;;;;4994464;28;20181;-68
2024/03/28 11:08:28;;;;;;;1.00;0.70;;;22.80;54.50;;;;;;4994497;28;20443;-67
2024/03/28 11:11:01;;;;;;;0.90;0.70;;;22.70;54.40;;;;;;4994474;28;20863;-67
2024/03/28 11:13:28;;;;;;;0.90;0.60;;;22.80;54.40;;;;;;4994902;28;20837;-67
2024/03/28 11:16:03;;;;;;;1.53;0.70;;;22.80;54.40;;;;;;4994857;28;20502;-66
2024/03/28 11:18:30;;;;;;;1.00;0.67;;;22.80;54.40;;;;;;4994369;28;20455;-68
2024/03/28 11:20:55;;;;;;;0.90;0.70;;;22.70;54.40;;;;;;4994529;28;20439;-68
2024/03/28 11:23:21;;;;;;;0.90;0.70;;;22.70;55.00;;;;;;4994583;28;20424;-67
2024/03/28 11:25:47;;;;;;;0.90;0.70;;;22.70;54.40;;;;;;4994322;28;20657;-65
2024/03/28 11:28:14;;;;;;;0.80;0.60;;;22.70;54.40;;;;;;4994389;28;20177;-67
2024/03/28 11:31:00;;;;;;;0.90;0.70;;;22.80;54.50;;;;;;4994462;28;20884;-66
2024/03/28 11:33:34;;;;;;;0.80;0.70;;;22.80;54.50;;;;;;4993871;28;20424;-68
2024/03/28 11:36:01;;;;;;;0.90;0.70;;;22.80;54.50;;;;;;4994186;28;20849;-68
2024/03/28 11:38:27;;;;;;;0.80;0.60;;;22.80;54.50;;;;;;4994089;28;20551;-68
2024/03/28 11:40:53;;;;;;;0.90;0.60;;;22.80;54.50;;;;;;4994463;28;20531;-68
2024/03/28 11:43:20;;;;;;;0.90;0.80;;;22.80;54.50;;;;;;4994125;28;20169;-68
2024/03/28 11:45:53;;;;;;;1.60;1.17;;;22.80;54.50;;;;;;4993878;28;20420;-68
2024/03/28 11:48:20;;;;;;;0.90;0.60;;;22.80;54.50;;;;;;4992807;28;20420;-66
2024/03/28 11:50:47;;;;;;;0.80;0.60;;;22.80;54.40;;;;;;4993936;28;20479;-68
2024/03/28 11:53:13;;;;;;;0.97;0.60;;;22.80;54.40;;;;;;4976319;28;20416;-68
2024/03/28 11:55:40;;;;;;;0.90;0.70;;;22.80;54.40;;;;;;4993947;28;20523;-68
2024/03/28 11:58:18;;;;;;;0.90;0.60;;;22.80;54.40;;;;;;4994132;28;20911;-68
2024/03/28 12:00:44;;;;;;;0.80;0.60;;;22.80;54.90;;;;;;4993715;28;21018;-67
2024/03/28 12:03:11;;;;;;;0.90;0.60;;;22.80;54.40;;;;;;4993813;28;20400;-68
2024/03/28 12:05:37;;;;;;;1.00;0.70;;;22.80;54.40;;;;;;4993974;28;20503;-68
2024/03/28 12:08:04;;;;;;;0.90;0.60;;;22.70;54.30;;;;;;4993738;28;20930;-66
2024/03/28 12:10:29;;;;;;;1.00;0.70;;;22.80;54.40;;;;;;4993592;28;20833;-67
2024/03/28 12:12:55;;;;;;;1.00;0.70;;;22.80;54.40;;;;;;4993775;28;20445;-68
2024/03/28 12:15:21;;;;;;;0.90;0.70;;;22.80;54.40;;;;;;4993499;28;20185;-69
2024/03/28 12:17:46;;;;;;;0.90;0.70;;;22.80;54.40;;;;;;4993312;28;20215;-68
2024/03/28 12:20:20;;;;;;;0.80;0.60;;;22.80;54.40;;;;;;4993545;28;20208;-68
2024/03/28 12:22:49;;;;;;;0.90;0.60;;;22.80;54.40;;;;;;4993668;28;20165;-68
2024/03/28 12:25:15;;;;;;;0.80;0.60;;;22.80;54.40;;;;;;4993437;28;20440;-69
2024/03/28 12:27:41;;;;;;;0.90;0.60;;;22.80;54.40;;;;;;4993115;28;20447;-66
2024/03/28 12:30:12;;;;;;;0.90;0.60;;;22.80;54.50;;;;;;4993199;28;20193;-67
2024/03/28 12:32:39;;;;;;;0.80;0.60;;;22.80;54.50;;;;;;4993087;28;20448;-67
2024/03/28 12:35:06;;;;;;;0.87;0.70;;;22.80;54.50;;;;;;4975575;28;21328;-67
2024/03/28 12:37:35;;;;;;;0.90;0.60;;;22.80;54.50;;;;;;4993952;28;20451;-68
2024/03/28 12:40:06;;;;;;;1.00;0.60;;;22.80;54.50;;;;;;4993451;28;20468;-68
2024/03/28 12:42:32;;;;;;;0.80;0.70;;;22.80;54.50;;;;;;4993484;28;20422;-68
2024/03/28 12:45:29;;;;;;;0.90;0.60;;;22.80;54.50;;;;;;4993241;28;20487;-68
2024/03/28 12:47:54;;;;;;;0.80;0.60;;;22.80;54.50;;;;;;4992775;28;20954;-68
2024/03/28 12:50:23;;;;;;;0.90;0.70;;;22.80;54.50;;;;;;4992723;28;20448;-68
2024/03/28 12:52:53;;;;;;;0.90;0.60;;;22.80;54.50;;;;;;4993086;28;20176;-68